createdAt,value
2018-05-17T00:01:51.108Z,12.92
2018-05-17T00:04:18.577Z,12.99
2018-05-17T00:06:46.054Z,12.99
2018-05-17T00:09:13.528Z,13.07
2018-05-17T00:11:41.005Z,12.98
2018-05-17T00:14:08.500Z,13.07
2018-05-17T00:16:35.966Z,13.02
2018-05-17T00:19:03.450Z,13.02
2018-05-17T00:21:30.921Z,12.98
2018-05-17T00:23:58.395Z,13.01
2018-05-17T00:26:25.892Z,12.98
2018-05-17T00:28:53.372Z,13.02
2018-05-17T00:31:20.863Z,13.06
2018-05-17T00:33:48.333Z,12.97
2018-05-17T00:36:15.797Z,12.90
2018-05-17T00:38:43.290Z,12.94
2018-05-17T00:41:10.767Z,12.94
2018-05-17T00:43:38.258Z,12.94
2018-05-17T00:46:05.731Z,12.97
2018-05-17T00:48:33.222Z,12.85
2018-05-17T00:51:00.692Z,12.78
2018-05-17T00:53:32.102Z,12.79
2018-05-17T00:55:59.587Z,12.90
2018-05-17T00:58:27.054Z,12.90
2018-05-17T01:00:54.545Z,12.88
2018-05-17T01:03:22.009Z,12.82
2018-05-17T01:05:49.510Z,12.83
2018-05-17T01:08:16.977Z,12.85
2018-05-17T01:10:44.457Z,12.87
2018-05-17T01:13:11.935Z,12.86
2018-05-17T01:15:39.399Z,12.82
2018-05-17T01:18:06.879Z,12.79
2018-05-17T01:20:34.347Z,12.83
2018-05-17T01:23:01.848Z,12.90
2018-05-17T01:25:29.336Z,12.91
2018-05-17T01:27:56.821Z,12.92
2018-05-17T01:30:24.305Z,12.90
2018-05-17T01:32:51.772Z,12.87
2018-05-17T01:35:19.251Z,12.90
2018-05-17T01:37:58.340Z,12.91
2018-05-17T01:40:25.816Z,12.86
2018-05-17T01:42:53.307Z,12.87
2018-05-17T01:45:20.779Z,12.83
2018-05-17T01:47:48.320Z,12.89
2018-05-17T01:50:15.797Z,12.88
2018-05-17T01:52:43.259Z,12.81
2018-05-17T01:55:10.754Z,12.83
2018-05-17T01:57:38.227Z,12.79
2018-05-17T02:00:05.721Z,12.81
2018-05-17T02:02:33.188Z,12.88
2018-05-17T02:05:00.656Z,12.85
2018-05-17T02:07:28.135Z,12.96
2018-05-17T02:09:55.608Z,12.92
2018-05-17T02:12:23.100Z,12.84
2018-05-17T02:14:50.572Z,12.82
2018-05-17T02:17:18.035Z,12.83
2018-05-17T02:19:45.520Z,12.86
2018-05-17T02:22:12.994Z,12.78
2018-05-17T02:24:40.944Z,12.84
2018-05-17T02:27:08.428Z,12.87
2018-05-17T02:29:36.173Z,12.81
2018-05-17T02:32:03.663Z,12.76
2018-05-17T02:34:31.141Z,12.79
2018-05-17T02:36:58.635Z,12.75
2018-05-17T02:39:26.125Z,12.72
2018-05-17T02:41:53.589Z,12.77
2018-05-17T02:44:21.079Z,12.78
2018-05-17T02:46:48.558Z,12.79
2018-05-17T02:49:16.177Z,12.86
2018-05-17T02:51:43.578Z,12.84
2018-05-17T02:54:11.049Z,12.86
2018-05-17T02:56:38.539Z,12.92
2018-05-17T02:59:06.017Z,12.90
2018-05-17T03:01:33.510Z,12.88
2018-05-17T03:04:00.984Z,12.84
2018-05-17T03:06:28.684Z,12.91
2018-05-17T03:08:56.153Z,12.90
2018-05-17T03:11:23.621Z,12.95
2018-05-17T03:13:51.112Z,12.97
2018-05-17T03:16:18.584Z,12.96
2018-05-17T03:18:46.070Z,12.94
2018-05-17T03:21:13.551Z,13.00
2018-05-17T03:23:41.047Z,12.82
2018-05-17T03:26:08.525Z,13.06
2018-05-17T03:28:35.997Z,12.98
2018-05-17T03:31:03.493Z,13.23
2018-05-17T03:33:30.953Z,13.18
2018-05-17T03:35:58.455Z,13.43
2018-05-17T03:38:25.939Z,13.62
2018-05-17T03:40:53.428Z,13.38
2018-05-17T03:43:20.936Z,13.35
2018-05-17T03:45:48.414Z,13.61
2018-05-17T03:48:16.382Z,13.16
2018-05-17T03:50:43.848Z,13.12
2018-05-17T03:53:11.329Z,13.03
2018-05-17T03:55:38.804Z,13.16
2018-05-17T03:58:06.272Z,13.23
2018-05-17T04:00:45.401Z,13.08
2018-05-17T04:03:24.580Z,13.16
2018-05-17T04:06:03.816Z,13.12
2018-05-17T04:08:31.316Z,13.23
2018-05-17T04:10:58.768Z,13.16
2018-05-17T04:13:26.281Z,13.03
2018-05-17T04:15:53.757Z,13.10
2018-05-17T04:18:21.253Z,13.10
2018-05-17T04:20:48.719Z,13.26
2018-05-17T04:23:16.184Z,13.45
2018-05-17T04:25:43.688Z,13.35
2018-05-17T04:28:11.239Z,13.37
2018-05-17T04:30:38.728Z,13.56
2018-05-17T04:33:06.192Z,13.47
2018-05-17T04:35:33.677Z,13.46
2018-05-17T04:38:01.160Z,13.50
2018-05-17T04:40:28.639Z,13.36
2018-05-17T04:42:56.124Z,13.52
2018-05-17T04:45:23.599Z,13.50
2018-05-17T04:47:51.064Z,13.56
2018-05-17T04:50:18.552Z,13.47
2018-05-17T04:52:46.024Z,13.70
2018-05-17T04:55:13.522Z,13.70
2018-05-17T04:57:40.991Z,13.63
2018-05-17T05:00:08.460Z,13.57
2018-05-17T05:02:36.266Z,13.58
2018-05-17T05:05:03.744Z,13.54
2018-05-17T05:07:31.240Z,13.55
2018-05-17T05:09:58.718Z,13.67
2018-05-17T05:12:26.875Z,13.69
2018-05-17T05:14:54.486Z,13.57
2018-05-17T05:17:21.969Z,13.59
2018-05-17T05:19:49.463Z,13.63
2018-05-17T05:22:16.956Z,13.63
2018-05-17T05:24:44.432Z,13.77
2018-05-17T05:27:11.915Z,13.62
2018-05-17T05:29:39.384Z,13.69
2018-05-17T05:32:06.880Z,13.63
2018-05-17T05:34:34.360Z,13.76
2018-05-17T05:37:01.840Z,13.72
2018-05-17T05:39:29.765Z,13.79
2018-05-17T05:41:57.236Z,13.68
2018-05-17T05:44:24.733Z,13.75
2018-05-17T05:46:52.208Z,13.73
2018-05-17T05:49:19.744Z,13.71
2018-05-17T05:51:47.195Z,13.81
2018-05-17T05:54:14.666Z,13.78
2018-05-17T05:56:42.170Z,13.80
2018-05-17T05:59:09.642Z,14.01
2018-05-17T06:01:37.129Z,14.19
2018-05-17T06:04:04.610Z,14.08
2018-05-17T06:06:32.080Z,14.11
2018-05-17T06:08:59.573Z,14.08
2018-05-17T06:11:27.143Z,13.98
2018-05-17T06:13:54.554Z,13.94
2018-05-17T06:16:22.165Z,13.98
2018-05-17T06:18:49.635Z,14.16
2018-05-17T06:21:17.118Z,14.13
2018-05-17T06:23:44.635Z,14.01
2018-05-17T06:26:12.105Z,13.88
2018-05-17T06:28:39.576Z,13.97
2018-05-17T06:31:07.061Z,14.04
2018-05-17T06:33:35.329Z,14.00
2018-05-17T06:36:02.798Z,14.06
2018-05-17T06:38:30.283Z,14.01
2018-05-17T06:40:57.762Z,14.01
2018-05-17T06:43:25.255Z,14.17
2018-05-17T06:45:52.719Z,14.29
2018-05-17T06:48:20.211Z,14.26
2018-05-17T06:50:47.707Z,14.31
2018-05-17T06:53:15.169Z,14.27
2018-05-17T06:55:42.658Z,14.28
2018-05-17T06:58:10.126Z,14.25
2018-05-17T07:00:37.700Z,14.12
2018-05-17T07:03:05.107Z,14.23
2018-05-17T07:05:32.572Z,14.36
2018-05-17T07:08:00.055Z,14.17
2018-05-17T07:10:27.544Z,14.30
2018-05-17T07:12:55.028Z,14.30
2018-05-17T07:15:22.506Z,14.25
2018-05-17T07:17:50.018Z,14.15
2018-05-17T07:20:17.488Z,14.31
2018-05-17T07:22:44.951Z,14.47
2018-05-17T07:25:12.439Z,14.24
2018-05-17T07:27:39.924Z,14.34
2018-05-17T07:30:07.386Z,14.40
2018-05-17T07:32:34.875Z,14.40
2018-05-17T07:35:02.347Z,14.26
2018-05-17T07:37:29.840Z,14.25
2018-05-17T07:39:57.316Z,14.32
2018-05-17T07:42:24.788Z,14.38
2018-05-17T07:44:52.276Z,14.57
2018-05-17T07:47:19.751Z,14.43
2018-05-17T07:49:47.243Z,14.37
2018-05-17T07:52:14.799Z,14.33
2018-05-17T07:54:42.205Z,14.51
2018-05-17T07:57:09.696Z,14.58
2018-05-17T07:59:37.173Z,14.65
2018-05-17T08:02:04.660Z,14.92
2018-05-17T08:04:32.134Z,14.94
2018-05-17T08:06:59.611Z,15.40
2018-05-17T08:09:27.103Z,15.50
2018-05-17T08:11:54.577Z,15.53
2018-05-17T08:14:22.103Z,15.68
2018-05-17T08:16:50.472Z,15.74
2018-05-17T08:19:17.945Z,15.95
2018-05-17T08:21:45.442Z,16.02
2018-05-17T08:24:12.908Z,16.15
2018-05-17T08:26:40.408Z,15.99
2018-05-17T08:29:07.872Z,16.27
2018-05-17T08:31:35.340Z,16.46
2018-05-17T08:34:02.827Z,16.99
2018-05-17T08:36:30.374Z,17.38
2018-05-17T08:38:57.812Z,17.16
2018-05-17T08:41:25.276Z,16.88
2018-05-17T08:43:52.740Z,16.93
2018-05-17T08:46:20.241Z,16.51
2018-05-17T08:48:47.711Z,16.62
2018-05-17T08:51:15.229Z,16.43
2018-05-17T08:53:42.697Z,16.20
2018-05-17T08:56:10.174Z,16.28
2018-05-17T08:58:37.658Z,15.78
2018-05-17T09:01:05.129Z,15.97
2018-05-17T09:03:34.712Z,15.98
2018-05-17T09:06:02.171Z,16.02
2018-05-17T09:08:29.643Z,16.03
2018-05-17T09:10:57.577Z,16.08
2018-05-17T09:13:25.137Z,16.08
2018-05-17T09:15:52.574Z,16.17
2018-05-17T09:18:20.064Z,16.20
2018-05-17T09:20:47.535Z,15.79
2018-05-17T09:23:15.012Z,15.56
2018-05-17T09:25:42.492Z,15.74
2018-05-17T09:28:09.992Z,15.72
2018-05-17T09:30:37.466Z,15.84
2018-05-17T09:33:04.943Z,15.97
2018-05-17T09:35:32.443Z,15.93
2018-05-17T09:37:59.905Z,15.87
2018-05-17T09:40:27.374Z,15.65
2018-05-17T09:42:54.875Z,15.65
2018-05-17T09:45:22.348Z,15.68
2018-05-17T09:47:49.847Z,15.53
2018-05-17T09:50:17.327Z,15.42
2018-05-17T09:52:44.805Z,15.57
2018-05-17T09:55:12.525Z,15.40
2018-05-17T09:57:39.995Z,15.44
2018-05-17T10:00:07.459Z,15.46
2018-05-17T10:02:34.950Z,15.62
2018-05-17T10:05:02.420Z,15.71
2018-05-17T10:07:29.903Z,15.64
2018-05-17T10:09:57.373Z,15.87
2018-05-17T10:12:24.857Z,15.59
2018-05-17T10:14:52.348Z,15.78
2018-05-17T10:17:19.817Z,15.53
2018-05-17T10:19:47.309Z,15.66
2018-05-17T10:22:14.775Z,15.94
2018-05-17T10:24:42.233Z,15.82
2018-05-17T10:27:09.810Z,15.75
2018-05-17T10:29:37.287Z,15.67
2018-05-17T10:32:04.781Z,15.62
2018-05-17T10:34:32.256Z,15.55
2018-05-17T10:36:59.725Z,15.56
2018-05-17T10:39:27.204Z,15.36
2018-05-17T10:41:54.671Z,15.78
2018-05-17T10:44:22.157Z,15.69
2018-05-17T10:46:49.622Z,15.73
2018-05-17T10:49:17.084Z,15.41
2018-05-17T10:51:44.576Z,15.49
2018-05-17T10:54:12.048Z,15.43
2018-05-17T10:56:39.772Z,15.49
2018-05-17T10:59:07.240Z,15.42
2018-05-17T11:01:34.707Z,15.41
2018-05-17T11:04:03.015Z,15.52
2018-05-17T11:06:30.483Z,15.50
2018-05-17T11:08:57.974Z,15.59
2018-05-17T11:11:25.456Z,15.58
2018-05-17T11:13:52.943Z,15.59
2018-05-17T11:16:20.431Z,15.53
2018-05-17T11:18:47.904Z,15.70
2018-05-17T11:21:15.377Z,15.61
2018-05-17T11:23:42.868Z,15.52
2018-05-17T11:26:10.332Z,15.21
2018-05-17T11:28:37.817Z,15.26
2018-05-17T11:31:05.291Z,15.31
2018-05-17T11:33:32.764Z,15.34
2018-05-17T11:36:00.264Z,15.49
2018-05-17T11:38:27.776Z,15.43
2018-05-17T11:40:55.247Z,15.41
2018-05-17T11:43:22.714Z,15.50
2018-05-17T11:45:50.184Z,15.67
2018-05-17T11:48:17.695Z,15.58
2018-05-17T11:50:45.169Z,15.87
2018-05-17T11:53:13.041Z,15.58
2018-05-17T11:55:40.527Z,15.54
2018-05-17T11:58:07.997Z,15.53
2018-05-17T12:00:35.497Z,15.76
2018-05-17T12:03:02.971Z,15.79
2018-05-17T12:05:30.451Z,15.40
2018-05-17T12:07:57.919Z,15.97
2018-05-17T12:10:25.384Z,15.95
2018-05-17T12:12:52.883Z,16.07
2018-05-17T12:15:20.352Z,15.83
2018-05-17T12:17:47.856Z,16.21
2018-05-17T12:20:15.327Z,16.47
2018-05-17T12:22:42.802Z,15.87
2018-05-17T12:25:10.303Z,15.90
2018-05-17T12:27:37.779Z,15.98
2018-05-17T12:30:05.256Z,15.83
2018-05-17T12:32:32.743Z,16.28
2018-05-17T12:35:00.214Z,16.01
2018-05-17T12:37:27.707Z,16.05
2018-05-17T12:39:55.183Z,15.76
2018-05-17T12:42:22.648Z,15.74
2018-05-17T12:44:50.135Z,15.85
2018-05-17T12:47:17.610Z,15.95
2018-05-17T12:49:45.099Z,15.92
2018-05-17T12:52:12.579Z,15.95
2018-05-17T12:54:40.049Z,15.88
2018-05-17T12:57:07.545Z,16.15
2018-05-17T12:59:35.027Z,16.35
2018-05-17T13:02:02.520Z,16.25
2018-05-17T13:04:29.991Z,16.42
2018-05-17T13:06:57.540Z,16.11
2018-05-17T13:09:24.970Z,16.54
2018-05-17T13:11:52.453Z,16.51
2018-05-17T13:14:19.974Z,16.43
2018-05-17T13:16:47.451Z,16.61
2018-05-17T13:19:14.934Z,16.64
2018-05-17T13:21:42.416Z,16.58
2018-05-17T13:24:09.926Z,16.39
2018-05-17T13:26:37.411Z,16.55
2018-05-17T13:29:04.888Z,16.56
2018-05-17T13:31:32.360Z,16.49
2018-05-17T13:33:59.841Z,16.76
2018-05-17T13:36:27.312Z,16.89
2018-05-17T13:38:54.780Z,16.94
2018-05-17T13:41:22.263Z,17.26
2018-05-17T13:43:49.743Z,17.01
2018-05-17T13:46:17.223Z,17.05
2018-05-17T13:48:44.686Z,17.10
2018-05-17T13:51:12.164Z,16.73
2018-05-17T13:53:39.627Z,16.66
2018-05-17T13:56:07.093Z,16.36
2018-05-17T13:58:34.588Z,16.28
2018-05-17T14:01:02.049Z,16.20
2018-05-17T14:03:29.523Z,16.37
2018-05-17T14:05:56.999Z,16.46
2018-05-17T14:08:24.468Z,16.43
2018-05-17T14:10:51.959Z,16.76
2018-05-17T14:13:19.420Z,16.52
2018-05-17T14:15:46.893Z,16.90
2018-05-17T14:18:14.392Z,17.05
2018-05-17T14:20:41.865Z,17.40
2018-05-17T14:23:09.523Z,17.81
2018-05-17T14:25:37.084Z,17.53
2018-05-17T14:28:04.549Z,17.83
2018-05-17T14:30:33.236Z,18.09
2018-05-17T14:33:00.712Z,18.50
2018-05-17T14:35:28.219Z,18.69
2018-05-17T14:37:55.716Z,19.00
2018-05-17T14:40:23.201Z,18.73
2018-05-17T14:42:50.685Z,18.53
2018-05-17T14:45:18.162Z,18.57
2018-05-17T14:47:45.648Z,18.92
2018-05-17T14:50:13.120Z,18.90
2018-05-17T14:52:40.612Z,18.35
2018-05-17T14:55:08.088Z,18.62
2018-05-17T14:57:35.601Z,19.49
2018-05-17T15:00:03.074Z,19.81
2018-05-17T15:02:30.547Z,20.78
2018-05-17T15:04:58.043Z,21.56
2018-05-17T15:07:25.519Z,21.06
2018-05-17T15:09:52.996Z,20.70
2018-05-17T15:12:20.465Z,20.25
2018-05-17T15:14:47.943Z,19.91
2018-05-17T15:17:15.412Z,18.89
2018-05-17T15:19:42.889Z,19.05
2018-05-17T15:22:10.435Z,18.71
2018-05-17T15:24:37.970Z,18.83
2018-05-17T15:27:05.416Z,18.99
2018-05-17T15:29:32.896Z,19.25
2018-05-17T15:32:00.392Z,19.14
2018-05-17T15:34:27.853Z,18.80
2018-05-17T15:36:55.327Z,18.60
2018-05-17T15:39:22.812Z,18.70
2018-05-17T15:41:50.276Z,18.55
2018-05-17T15:44:17.748Z,18.79
2018-05-17T15:46:45.217Z,18.53
2018-05-17T15:49:12.680Z,18.67
2018-05-17T15:51:40.174Z,18.98
2018-05-17T15:54:07.658Z,19.00
2018-05-17T15:56:35.137Z,19.19
2018-05-17T15:59:02.615Z,19.57
2018-05-17T16:01:30.072Z,19.13
2018-05-17T16:03:57.562Z,19.52
2018-05-17T16:06:25.507Z,19.54
2018-05-17T16:08:53.108Z,19.18
2018-05-17T16:11:20.567Z,19.00
2018-05-17T16:13:48.027Z,18.48
2018-05-17T16:16:15.512Z,18.56
2018-05-17T16:18:43.002Z,18.59
2018-05-17T16:21:10.467Z,18.23
2018-05-17T16:23:37.948Z,18.22
2018-05-17T16:26:05.417Z,18.34
2018-05-17T16:28:32.912Z,18.18
2018-05-17T16:31:00.379Z,18.06
2018-05-17T16:33:27.849Z,18.01
2018-05-17T16:39:25.739Z,18.03
2018-05-17T16:41:53.203Z,18.09
2018-05-17T16:44:20.683Z,17.34
2018-05-17T16:46:48.172Z,16.89
2018-05-17T16:49:15.645Z,17.16
2018-05-17T16:51:43.133Z,17.41
2018-05-17T16:54:10.622Z,17.85
2018-05-17T16:56:38.093Z,18.02
2018-05-17T16:59:05.578Z,18.25
2018-05-17T17:01:33.049Z,18.14
2018-05-17T17:04:00.548Z,18.09
2018-05-17T17:06:28.464Z,17.88
2018-05-17T17:08:55.928Z,18.07
2018-05-17T17:11:23.408Z,18.20
2018-05-17T17:13:50.871Z,18.15
2018-05-17T17:16:18.347Z,18.20
2018-05-17T17:18:45.818Z,18.21
2018-05-17T17:21:13.288Z,18.23
2018-05-17T17:23:40.779Z,18.09
2018-05-17T17:26:08.247Z,18.19
2018-05-17T17:28:35.742Z,17.98
2018-05-17T17:31:03.215Z,17.93
2018-05-17T17:33:30.847Z,17.74
2018-05-17T17:35:58.315Z,17.90
2018-05-17T17:38:25.830Z,17.56
2018-05-17T17:40:53.300Z,17.33
2018-05-17T17:43:20.766Z,17.24
2018-05-17T17:45:48.247Z,17.22
2018-05-17T17:48:15.716Z,17.13
2018-05-17T17:50:43.210Z,16.94
2018-05-17T17:53:10.698Z,16.84
2018-05-17T17:55:38.243Z,16.76
2018-05-17T17:58:06.216Z,16.73
2018-05-17T18:00:33.683Z,16.67
2018-05-17T18:03:01.175Z,16.64
2018-05-17T18:05:29.593Z,16.64
2018-05-17T18:07:57.319Z,16.63
2018-05-17T18:10:24.818Z,16.59
2018-05-17T18:12:52.287Z,16.39
2018-05-17T18:15:19.863Z,16.36
2018-05-17T18:17:47.505Z,16.37
2018-05-17T18:20:15.118Z,16.36
2018-05-17T18:22:44.211Z,16.30
2018-05-17T18:25:12.347Z,16.17
2018-05-17T18:27:40.384Z,16.25
2018-05-17T18:30:07.987Z,16.19
2018-05-17T18:32:35.896Z,16.06
2018-05-17T18:35:03.357Z,16.02
2018-05-17T18:37:30.842Z,15.95
2018-05-17T18:39:58.546Z,15.97
2018-05-17T18:42:26.030Z,16.03
2018-05-17T18:44:53.737Z,15.89
2018-05-17T18:47:21.315Z,15.86
2018-05-17T18:49:48.995Z,15.90
2018-05-17T18:52:16.543Z,15.86
2018-05-17T18:54:44.329Z,15.84
2018-05-17T18:57:12.107Z,15.80
2018-05-17T18:59:39.863Z,15.76
2018-05-17T19:02:07.768Z,15.69
2018-05-17T19:04:35.260Z,15.73
2018-05-17T19:07:03.208Z,15.48
2018-05-17T19:09:30.887Z,15.48
2018-05-17T19:11:58.363Z,15.46
2018-05-17T19:14:25.834Z,15.42
2018-05-17T19:16:53.328Z,15.42
2018-05-17T19:19:20.795Z,15.29
2018-05-17T19:21:48.439Z,15.37
2018-05-17T19:24:15.904Z,15.30
2018-05-17T19:26:43.372Z,15.28
2018-05-17T19:29:10.852Z,15.20
2018-05-17T19:31:38.410Z,15.24
2018-05-17T19:34:05.836Z,15.18
2018-05-17T19:36:33.308Z,15.14
2018-05-17T19:39:00.789Z,15.03
2018-05-17T19:41:28.275Z,14.96
2018-05-17T19:43:55.740Z,14.95
2018-05-17T19:46:23.239Z,15.07
2018-05-17T19:48:50.712Z,15.02
2018-05-17T19:51:18.177Z,14.92
2018-05-17T19:53:45.664Z,14.89
2018-05-17T19:56:13.145Z,14.92
2018-05-17T19:58:40.717Z,14.98
2018-05-17T20:01:08.120Z,14.96
2018-05-17T20:03:35.664Z,14.96
2018-05-17T20:06:03.148Z,14.93
2018-05-17T20:08:30.625Z,14.90
2018-05-17T20:10:58.105Z,14.79
2018-05-17T20:13:25.580Z,14.82
2018-05-17T20:15:53.540Z,14.89
2018-05-17T20:18:21.009Z,14.87
2018-05-17T20:20:48.467Z,14.90
2018-05-17T20:23:15.966Z,14.89
2018-05-17T20:25:43.436Z,15.03
2018-05-17T20:28:10.924Z,15.19
2018-05-17T20:30:38.397Z,15.06
2018-05-17T20:33:05.877Z,15.11
2018-05-17T20:35:33.364Z,15.19
2018-05-17T20:38:00.839Z,15.24
2018-05-17T20:40:28.325Z,15.16
2018-05-17T20:42:55.794Z,15.21
2018-05-17T20:45:23.263Z,15.26
2018-05-17T20:47:50.761Z,15.08
2018-05-17T20:50:18.225Z,14.96
2018-05-17T20:52:45.713Z,14.95
2018-05-17T20:55:13.254Z,15.26
2018-05-17T20:57:40.671Z,15.17
2018-05-17T21:00:08.169Z,15.00
2018-05-17T21:02:35.653Z,14.83
2018-05-17T21:05:03.152Z,15.16
2018-05-17T21:07:32.729Z,14.95
2018-05-17T21:10:00.200Z,15.09
2018-05-17T21:12:27.681Z,15.25
2018-05-17T21:14:55.148Z,15.37
2018-05-17T21:17:22.635Z,15.09
2018-05-17T21:19:50.111Z,15.14
2018-05-17T21:22:17.576Z,15.26
2018-05-17T21:24:45.061Z,15.02
2018-05-17T21:27:12.558Z,15.53
2018-05-17T21:29:40.036Z,15.47
2018-05-17T21:32:07.507Z,15.62
2018-05-17T21:34:34.989Z,15.65
2018-05-17T21:37:02.465Z,15.27
2018-05-17T21:39:30.008Z,15.04
2018-05-17T21:41:57.427Z,15.07
2018-05-17T21:44:24.893Z,15.07
2018-05-17T21:46:52.376Z,15.03
2018-05-17T21:49:19.848Z,14.96
2018-05-17T21:51:47.335Z,15.02
2018-05-17T21:54:14.805Z,15.14
2018-05-17T21:56:42.285Z,15.06
2018-05-17T21:59:09.768Z,15.28
2018-05-17T22:01:37.573Z,15.16
2018-05-17T22:04:05.071Z,15.19
2018-05-17T22:06:32.536Z,15.23
2018-05-17T22:09:00.011Z,15.35
2018-05-17T22:11:27.519Z,15.29
2018-05-17T22:13:54.988Z,15.26
2018-05-17T22:16:22.772Z,15.03
2018-05-17T22:18:50.241Z,14.85
2018-05-17T22:21:17.703Z,14.87
2018-05-17T22:23:45.192Z,14.86
2018-05-17T22:26:12.665Z,14.83
2018-05-17T22:28:41.176Z,14.82
2018-05-17T22:31:08.672Z,14.81
2018-05-17T22:33:36.140Z,14.89
2018-05-17T22:36:03.624Z,14.73
2018-05-17T22:38:31.088Z,14.74
2018-05-17T22:40:58.578Z,14.71
2018-05-17T22:43:26.055Z,14.60
2018-05-17T22:45:53.550Z,14.62
2018-05-17T22:48:21.901Z,14.65
2018-05-17T22:50:49.368Z,14.55
2018-05-17T22:53:16.855Z,14.42
2018-05-17T22:55:44.319Z,14.36
2018-05-17T22:58:23.672Z,14.33
2018-05-17T23:00:51.147Z,14.20
2018-05-17T23:03:18.636Z,14.27
2018-05-17T23:05:46.116Z,14.14
2018-05-17T23:08:13.953Z,14.10
2018-05-17T23:10:41.425Z,13.98
2018-05-17T23:13:08.909Z,13.98
2018-05-17T23:15:36.401Z,13.94
2018-05-17T23:18:03.872Z,13.97
2018-05-17T23:20:31.370Z,13.91
2018-05-17T23:22:58.857Z,13.94
2018-05-17T23:25:26.332Z,13.90
2018-05-17T23:27:53.836Z,14.00
2018-05-17T23:30:21.313Z,13.95
2018-05-17T23:32:49.656Z,13.89
2018-05-17T23:35:17.139Z,13.83
2018-05-17T23:37:44.624Z,13.80
2018-05-17T23:40:23.920Z,13.72
2018-05-17T23:42:51.395Z,13.71
2018-05-17T23:45:18.908Z,13.69
2018-05-17T23:47:46.376Z,13.68
2018-05-17T23:50:14.203Z,13.74
2018-05-17T23:52:41.675Z,13.74
2018-05-17T23:55:09.152Z,13.76
2018-05-17T23:57:36.640Z,13.89
